sensor_id;sensor_type;location;lat;lon;timestamp;temperature;humidity
74178;DHT22;62540;48.456;-4.456;2022-11-11T00:01:14;16.87;80.97
74178;DHT22;62540;48.456;-4.456;2022-11-11T00:03:40;16.87;80.93
74178;DHT22;62540;48.456;-4.456;2022-11-11T00:06:09;16.87;80.65
74178;DHT22;62540;48.456;-4.456;2022-11-11T00:08:35;16.89;80.79
74178;DHT22;62540;48.456;-4.456;2022-11-11T00:11:04;16.87;80.76
74178;DHT22;62540;48.456;-4.456;2022-11-11T00:13:31;16.90;80.49
74178;DHT22;62540;48.456;-4.456;2022-11-11T00:16:03;16.91;80.27
74178;DHT22;62540;48.456;-4.456;2022-11-11T00:18:29;16.87;80.35
74178;DHT22;62540;48.456;-4.456;2022-11-11T00:21:13;16.90;80.31
74178;DHT22;62540;48.456;-4.456;2022-11-11T00:23:57;16.90;80.22
74178;DHT22;62540;48.456;-4.456;2022-11-11T00:26:41;16.87;80.26
74178;DHT22;62540;48.456;-4.456;2022-11-11T00:29:06;16.90;80.17
74178;DHT22;62540;48.456;-4.456;2022-11-11T00:31:33;16.84;80.51
74178;DHT22;62540;48.456;-4.456;2022-11-11T00:33:59;16.89;80.52
74178;DHT22;62540;48.456;-4.456;2022-11-11T00:36:25;16.86;80.56
74178;DHT22;62540;48.456;-4.456;2022-11-11T00:38:50;16.84;80.55
74178;DHT22;62540;48.456;-4.456;2022-11-11T00:41:26;16.87;80.28
74178;DHT22;62540;48.456;-4.456;2022-11-11T00:43:51;16.90;80.29
74178;DHT22;62540;48.456;-4.456;2022-11-11T00:46:17;16.91;80.27
74178;DHT22;62540;48.456;-4.456;2022-11-11T00:49:02;16.93;80.24
74178;DHT22;62540;48.456;-4.456;2022-11-11T00:51:46;16.93;80.43
74178;DHT22;62540;48.456;-4.456;2022-11-11T00:54:12;16.96;80.41
74178;DHT22;62540;48.456;-4.456;2022-11-11T00:56:38;16.96;80.65
74178;DHT22;62540;48.456;-4.456;2022-11-11T00:59:06;16.96;80.76
74178;DHT22;62540;48.456;-4.456;2022-11-11T01:01:34;16.99;80.51
74178;DHT22;62540;48.456;-4.456;2022-11-11T01:03:59;17.06;80.41
74178;DHT22;62540;48.456;-4.456;2022-11-11T01:06:25;17.06;80.56
74178;DHT22;62540;48.456;-4.456;2022-11-11T01:08:51;17.09;80.37
74178;DHT22;62540;48.456;-4.456;2022-11-11T01:11:21;17.09;80.40
74178;DHT22;62540;48.456;-4.456;2022-11-11T01:13:47;17.10;80.31
74178;DHT22;62540;48.456;-4.456;2022-11-11T01:16:15;17.04;80.51
74178;DHT22;62540;48.456;-4.456;2022-11-11T01:18:41;17.04;80.57
74178;DHT22;62540;48.456;-4.456;2022-11-11T01:21:11;17.07;80.57
74178;DHT22;62540;48.456;-4.456;2022-11-11T01:23:38;17.06;80.38
74178;DHT22;62540;48.456;-4.456;2022-11-11T01:26:10;17.07;80.57
74178;DHT22;62540;48.456;-4.456;2022-11-11T01:28:37;17.04;80.56
74178;DHT22;62540;48.456;-4.456;2022-11-11T01:31:05;17.03;80.65
74178;DHT22;62540;48.456;-4.456;2022-11-11T01:33:31;17.02;80.67
74178;DHT22;62540;48.456;-4.456;2022-11-11T01:36:05;17.10;80.37
74178;DHT22;62540;48.456;-4.456;2022-11-11T01:38:30;17.07;80.56
74178;DHT22;62540;48.456;-4.456;2022-11-11T01:40:56;17.06;80.52
74178;DHT22;62540;48.456;-4.456;2022-11-11T01:43:23;17.07;80.35
74178;DHT22;62540;48.456;-4.456;2022-11-11T01:48:40;17.07;80.41
74178;DHT22;62540;48.456;-4.456;2022-11-11T01:51:33;17.11;80.49
74178;DHT22;62540;48.456;-4.456;2022-11-11T01:54:04;17.07;80.55
74178;DHT22;62540;48.456;-4.456;2022-11-11T01:56:31;17.02;80.72
74178;DHT22;62540;48.456;-4.456;2022-11-11T01:59:01;17.04;80.68
74178;DHT22;62540;48.456;-4.456;2022-11-11T02:01:27;17.03;80.77
74178;DHT22;62540;48.456;-4.456;2022-11-11T02:03:54;16.97;80.72
74178;DHT22;62540;48.456;-4.456;2022-11-11T02:06:39;17.03;80.65
74178;DHT22;62540;48.456;-4.456;2022-11-11T02:09:05;17.00;80.78
74178;DHT22;62540;48.456;-4.456;2022-11-11T02:11:33;16.97;80.84
74178;DHT22;62540;48.456;-4.456;2022-11-11T02:14:19;16.99;80.95
74178;DHT22;62540;48.456;-4.456;2022-11-11T02:17:01;17.03;80.76
74178;DHT22;62540;48.456;-4.456;2022-11-11T02:19:53;17.03;80.88
74178;DHT22;62540;48.456;-4.456;2022-11-11T02:22:46;17.03;81.11
74178;DHT22;62540;48.456;-4.456;2022-11-11T02:25:16;17.04;81.02
74178;DHT22;62540;48.456;-4.456;2022-11-11T02:27:45;16.96;81.06
74178;DHT22;62540;48.456;-4.456;2022-11-11T02:30:14;17.00;80.99
74178;DHT22;62540;48.456;-4.456;2022-11-11T02:32:45;16.91;81.32
74178;DHT22;62540;48.456;-4.456;2022-11-11T02:35:33;16.91;81.40
74178;DHT22;62540;48.456;-4.456;2022-11-11T02:37:58;16.84;81.68
74178;DHT22;62540;48.456;-4.456;2022-11-11T02:40:41;16.89;81.68
74178;DHT22;62540;48.456;-4.456;2022-11-11T02:43:26;16.91;81.40
74178;DHT22;62540;48.456;-4.456;2022-11-11T02:45:52;16.89;81.47
74178;DHT22;62540;48.456;-4.456;2022-11-11T02:48:17;16.93;81.48
74178;DHT22;62540;48.456;-4.456;2022-11-11T02:50:43;16.93;81.18
74178;DHT22;62540;48.456;-4.456;2022-11-11T02:53:08;16.93;81.34
74178;DHT22;62540;48.456;-4.456;2022-11-11T02:55:33;16.89;81.58
74178;DHT22;62540;48.456;-4.456;2022-11-11T02:57:59;16.91;81.52
74178;DHT22;62540;48.456;-4.456;2022-11-11T03:00:25;16.90;81.63
74178;DHT22;62540;48.456;-4.456;2022-11-11T03:02:50;16.89;81.37
74178;DHT22;62540;48.456;-4.456;2022-11-11T03:05:16;16.91;81.28
74178;DHT22;62540;48.456;-4.456;2022-11-11T03:07:41;16.96;81.17
74178;DHT22;62540;48.456;-4.456;2022-11-11T03:10:07;16.97;81.47
74178;DHT22;62540;48.456;-4.456;2022-11-11T03:12:32;16.91;81.51
74178;DHT22;62540;48.456;-4.456;2022-11-11T03:14:58;16.96;81.26
74178;DHT22;62540;48.456;-4.456;2022-11-11T03:17:23;16.97;81.29
74178;DHT22;62540;48.456;-4.456;2022-11-11T03:20:09;17.02;81.18
74178;DHT22;62540;48.456;-4.456;2022-11-11T03:23:05;16.97;81.32
74178;DHT22;62540;48.456;-4.456;2022-11-11T03:25:31;17.00;81.02
74178;DHT22;62540;48.456;-4.456;2022-11-11T03:28:17;17.04;80.89
74178;DHT22;62540;48.456;-4.456;2022-11-11T03:30:46;17.00;81.07
74178;DHT22;62540;48.456;-4.456;2022-11-11T03:33:13;16.99;81.10
74178;DHT22;62540;48.456;-4.456;2022-11-11T03:35:39;17.00;81.18
74178;DHT22;62540;48.456;-4.456;2022-11-11T03:38:06;17.03;80.99
74178;DHT22;62540;48.456;-4.456;2022-11-11T03:40:50;17.02;80.85
74178;DHT22;62540;48.456;-4.456;2022-11-11T03:43:17;17.02;80.96
74178;DHT22;62540;48.456;-4.456;2022-11-11T03:45:44;16.99;80.80
74178;DHT22;62540;48.456;-4.456;2022-11-11T03:48:10;16.97;80.92
74178;DHT22;62540;48.456;-4.456;2022-11-11T03:50:36;17.02;80.73
74178;DHT22;62540;48.456;-4.456;2022-11-11T03:53:01;17.02;80.60
74178;DHT22;62540;48.456;-4.456;2022-11-11T03:55:27;17.03;80.59
74178;DHT22;62540;48.456;-4.456;2022-11-11T03:57:53;17.03;80.49
74178;DHT22;62540;48.456;-4.456;2022-11-11T04:00:24;17.04;80.42
74178;DHT22;62540;48.456;-4.456;2022-11-11T04:02:50;17.02;80.30
74178;DHT22;62540;48.456;-4.456;2022-11-11T04:05:35;17.04;80.37
74178;DHT22;62540;48.456;-4.456;2022-11-11T04:08:20;17.00;80.26
74178;DHT22;62540;48.456;-4.456;2022-11-11T04:11:11;16.99;80.31
74178;DHT22;62540;48.456;-4.456;2022-11-11T04:13:41;17.00;80.22
74178;DHT22;62540;48.456;-4.456;2022-11-11T04:16:27;17.03;80.04
74178;DHT22;62540;48.456;-4.456;2022-11-11T04:18:52;17.03;79.77
74178;DHT22;62540;48.456;-4.456;2022-11-11T04:21:36;17.00;79.64
74178;DHT22;62540;48.456;-4.456;2022-11-11T04:24:18;16.97;79.66
74178;DHT22;62540;48.456;-4.456;2022-11-11T04:27:08;16.89;79.37
74178;DHT22;62540;48.456;-4.456;2022-11-11T04:29:34;16.83;79.31
74178;DHT22;62540;48.456;-4.456;2022-11-11T04:32:01;16.82;79.17
74178;DHT22;62540;48.456;-4.456;2022-11-11T04:34:51;16.75;78.89
74178;DHT22;62540;48.456;-4.456;2022-11-11T04:37:18;16.70;78.97
74178;DHT22;62540;48.456;-4.456;2022-11-11T04:39:44;16.65;78.80
74178;DHT22;62540;48.456;-4.456;2022-11-11T04:42:29;16.61;78.75
74178;DHT22;62540;48.456;-4.456;2022-11-11T04:44:56;16.52;78.76
74178;DHT22;62540;48.456;-4.456;2022-11-11T04:47:56;16.45;78.88
74178;DHT22;62540;48.456;-4.456;2022-11-11T04:50:23;16.41;78.91
74178;DHT22;62540;48.456;-4.456;2022-11-11T04:52:49;16.36;78.92
74178;DHT22;62540;48.456;-4.456;2022-11-11T04:55:15;16.33;79.03
74178;DHT22;62540;48.456;-4.456;2022-11-11T04:57:59;16.29;79.01
74178;DHT22;62540;48.456;-4.456;2022-11-11T05:00:25;16.24;79.19
74178;DHT22;62540;48.456;-4.456;2022-11-11T05:02:54;16.21;79.23
74178;DHT22;62540;48.456;-4.456;2022-11-11T05:05:38;16.17;79.28
74178;DHT22;62540;48.456;-4.456;2022-11-11T05:08:22;16.15;79.51
74178;DHT22;62540;48.456;-4.456;2022-11-11T05:11:06;16.14;79.67
74178;DHT22;62540;48.456;-4.456;2022-11-11T05:13:32;16.12;79.58
74178;DHT22;62540;48.456;-4.456;2022-11-11T05:16:20;16.10;79.67
74178;DHT22;62540;48.456;-4.456;2022-11-11T05:19:05;16.04;79.82
74178;DHT22;62540;48.456;-4.456;2022-11-11T05:21:52;16.00;79.87
74178;DHT22;62540;48.456;-4.456;2022-11-11T05:24:18;16.01;79.76
74178;DHT22;62540;48.456;-4.456;2022-11-11T05:27:03;15.97;79.97
74178;DHT22;62540;48.456;-4.456;2022-11-11T05:29:28;15.90;80.11
74178;DHT22;62540;48.456;-4.456;2022-11-11T05:31:53;15.87;80.28
74178;DHT22;62540;48.456;-4.456;2022-11-11T05:34:19;15.82;80.33
74178;DHT22;62540;48.456;-4.456;2022-11-11T05:36:44;15.83;80.23
74178;DHT22;62540;48.456;-4.456;2022-11-11T05:39:10;15.82;80.10
74178;DHT22;62540;48.456;-4.456;2022-11-11T05:41:35;15.79;80.06
74178;DHT22;62540;48.456;-4.456;2022-11-11T05:44:00;15.79;80.33
74178;DHT22;62540;48.456;-4.456;2022-11-11T05:46:26;15.79;80.25
74178;DHT22;62540;48.456;-4.456;2022-11-11T05:48:51;15.73;80.58
74178;DHT22;62540;48.456;-4.456;2022-11-11T05:51:35;15.73;80.54
74178;DHT22;62540;48.456;-4.456;2022-11-11T05:54:00;15.70;80.51
74178;DHT22;62540;48.456;-4.456;2022-11-11T05:56:26;15.69;80.53
74178;DHT22;62540;48.456;-4.456;2022-11-11T05:58:51;15.70;80.47
74178;DHT22;62540;48.456;-4.456;2022-11-11T06:01:17;15.66;80.82
74178;DHT22;62540;48.456;-4.456;2022-11-11T06:03:42;15.67;80.73
74178;DHT22;62540;48.456;-4.456;2022-11-11T06:06:08;15.63;80.95
74178;DHT22;62540;48.456;-4.456;2022-11-11T06:08:33;15.60;81.19
74178;DHT22;62540;48.456;-4.456;2022-11-11T06:10:58;15.57;81.76
74178;DHT22;62540;48.456;-4.456;2022-11-11T06:13:24;15.60;81.32
74178;DHT22;62540;48.456;-4.456;2022-11-11T06:15:49;15.53;82.47
74178;DHT22;62540;48.456;-4.456;2022-11-11T06:18:14;15.59;82.15
74178;DHT22;62540;48.456;-4.456;2022-11-11T06:20:40;15.62;81.98
74178;DHT22;62540;48.456;-4.456;2022-11-11T06:23:05;15.63;81.96
74178;DHT22;62540;48.456;-4.456;2022-11-11T06:25:32;15.64;81.85
74178;DHT22;62540;48.456;-4.456;2022-11-11T06:28:17;15.64;82.15
74178;DHT22;62540;48.456;-4.456;2022-11-11T06:30:43;15.66;81.99
74178;DHT22;62540;48.456;-4.456;2022-11-11T06:33:09;15.66;81.77
74178;DHT22;62540;48.456;-4.456;2022-11-11T06:35:36;15.64;81.81
74178;DHT22;62540;48.456;-4.456;2022-11-11T06:38:03;15.69;81.49
74178;DHT22;62540;48.456;-4.456;2022-11-11T06:40:29;15.69;81.44
74178;DHT22;62540;48.456;-4.456;2022-11-11T06:42:56;15.64;81.38
74178;DHT22;62540;48.456;-4.456;2022-11-11T06:45:23;15.66;81.34
74178;DHT22;62540;48.456;-4.456;2022-11-11T06:47:48;15.63;81.45
74178;DHT22;62540;48.456;-4.456;2022-11-11T06:50:14;15.64;81.59
74178;DHT22;62540;48.456;-4.456;2022-11-11T06:52:40;15.62;82.05
74178;DHT22;62540;48.456;-4.456;2022-11-11T06:55:05;15.56;82.41
74178;DHT22;62540;48.456;-4.456;2022-11-11T06:57:31;15.54;82.42
74178;DHT22;62540;48.456;-4.456;2022-11-11T06:59:57;15.54;82.62
74178;DHT22;62540;48.456;-4.456;2022-11-11T07:02:22;15.49;82.78
74178;DHT22;62540;48.456;-4.456;2022-11-11T07:04:47;15.53;82.39
74178;DHT22;62540;48.456;-4.456;2022-11-11T07:07:13;15.53;82.35
74178;DHT22;62540;48.456;-4.456;2022-11-11T07:09:38;15.50;82.47
74178;DHT22;62540;48.456;-4.456;2022-11-11T07:12:04;15.52;82.29
74178;DHT22;62540;48.456;-4.456;2022-11-11T07:14:31;15.56;81.97
74178;DHT22;62540;48.456;-4.456;2022-11-11T07:16:57;15.50;82.11
74178;DHT22;62540;48.456;-4.456;2022-11-11T07:19:22;15.53;81.93
74178;DHT22;62540;48.456;-4.456;2022-11-11T07:21:47;15.50;81.86
74178;DHT22;62540;48.456;-4.456;2022-11-11T07:24:13;15.54;81.78
74178;DHT22;62540;48.456;-4.456;2022-11-11T07:26:38;15.59;81.70
74178;DHT22;62540;48.456;-4.456;2022-11-11T07:29:03;15.60;81.62
74178;DHT22;62540;48.456;-4.456;2022-11-11T07:31:29;15.66;81.51
74178;DHT22;62540;48.456;-4.456;2022-11-11T07:33:54;15.63;81.47
74178;DHT22;62540;48.456;-4.456;2022-11-11T07:36:20;15.66;81.50
74178;DHT22;62540;48.456;-4.456;2022-11-11T07:38:45;15.67;81.26
74178;DHT22;62540;48.456;-4.456;2022-11-11T07:41:11;15.70;81.13
74178;DHT22;62540;48.456;-4.456;2022-11-11T07:43:36;15.70;81.06
74178;DHT22;62540;48.456;-4.456;2022-11-11T07:46:01;15.74;80.93
74178;DHT22;62540;48.456;-4.456;2022-11-11T07:48:27;15.79;80.66
74178;DHT22;62540;48.456;-4.456;2022-11-11T07:50:52;15.76;80.68
74178;DHT22;62540;48.456;-4.456;2022-11-11T07:53:18;15.79;80.54
74178;DHT22;62540;48.456;-4.456;2022-11-11T07:55:44;15.74;80.44
74178;DHT22;62540;48.456;-4.456;2022-11-11T07:58:11;15.76;80.36
74178;DHT22;62540;48.456;-4.456;2022-11-11T08:00:36;15.79;80.24
74178;DHT22;62540;48.456;-4.456;2022-11-11T08:03:02;15.80;80.10
74178;DHT22;62540;48.456;-4.456;2022-11-11T08:05:27;15.82;79.89
74178;DHT22;62540;48.456;-4.456;2022-11-11T08:07:53;15.83;79.74
74178;DHT22;62540;48.456;-4.456;2022-11-11T08:10:18;15.89;79.82
74178;DHT22;62540;48.456;-4.456;2022-11-11T08:12:44;15.86;79.66
74178;DHT22;62540;48.456;-4.456;2022-11-11T08:15:28;15.91;79.38
74178;DHT22;62540;48.456;-4.456;2022-11-11T08:17:53;15.96;79.59
74178;DHT22;62540;48.456;-4.456;2022-11-11T08:20:19;15.97;79.47
74178;DHT22;62540;48.456;-4.456;2022-11-11T08:22:44;15.98;79.65
74178;DHT22;62540;48.456;-4.456;2022-11-11T08:25:11;16.04;79.73
74178;DHT22;62540;48.456;-4.456;2022-11-11T08:27:40;16.04;79.43
74178;DHT22;62540;48.456;-4.456;2022-11-11T08:30:07;16.08;79.37
74178;DHT22;62540;48.456;-4.456;2022-11-11T08:32:33;16.14;79.65
74178;DHT22;62540;48.456;-4.456;2022-11-11T08:34:59;16.20;79.61
74178;DHT22;62540;48.456;-4.456;2022-11-11T08:37:24;16.26;79.45
74178;DHT22;62540;48.456;-4.456;2022-11-11T08:39:50;16.29;79.12
74178;DHT22;62540;48.456;-4.456;2022-11-11T08:42:17;16.31;79.18
74178;DHT22;62540;48.456;-4.456;2022-11-11T08:44:42;16.35;79.10
74178;DHT22;62540;48.456;-4.456;2022-11-11T08:47:08;16.36;78.84
74178;DHT22;62540;48.456;-4.456;2022-11-11T08:49:33;16.44;79.06
74178;DHT22;62540;48.456;-4.456;2022-11-11T08:51:59;16.48;78.27
74178;DHT22;62540;48.456;-4.456;2022-11-11T08:54:24;16.49;78.53
74178;DHT22;62540;48.456;-4.456;2022-11-11T08:56:49;16.53;78.58
74178;DHT22;62540;48.456;-4.456;2022-11-11T08:59:15;16.68;78.56
74178;DHT22;62540;48.456;-4.456;2022-11-11T09:01:40;16.70;78.06
74178;DHT22;62540;48.456;-4.456;2022-11-11T09:04:06;16.72;78.10
74178;DHT22;62540;48.456;-4.456;2022-11-11T09:06:31;16.76;77.84
74178;DHT22;62540;48.456;-4.456;2022-11-11T09:08:56;16.86;77.68
74178;DHT22;62540;48.456;-4.456;2022-11-11T09:11:22;16.96;77.58
74178;DHT22;62540;48.456;-4.456;2022-11-11T09:13:47;17.06;76.73
74178;DHT22;62540;48.456;-4.456;2022-11-11T09:16:13;17.10;76.44
74178;DHT22;62540;48.456;-4.456;2022-11-11T09:18:39;17.14;75.90
74178;DHT22;62540;48.456;-4.456;2022-11-11T09:21:04;17.19;75.47
74178;DHT22;62540;48.456;-4.456;2022-11-11T09:23:30;17.20;74.96
74178;DHT22;62540;48.456;-4.456;2022-11-11T09:25:56;17.19;74.61
74178;DHT22;62540;48.456;-4.456;2022-11-11T09:28:22;17.23;74.49
74178;DHT22;62540;48.456;-4.456;2022-11-11T09:30:48;17.20;75.32
74178;DHT22;62540;48.456;-4.456;2022-11-11T09:33:15;17.20;74.47
74178;DHT22;62540;48.456;-4.456;2022-11-11T09:35:42;17.26;74.20
74178;DHT22;62540;48.456;-4.456;2022-11-11T09:38:08;17.21;73.74
74178;DHT22;62540;48.456;-4.456;2022-11-11T09:40:51;17.30;73.47
74178;DHT22;62540;48.456;-4.456;2022-11-11T09:54:17;17.41;73.51
74178;DHT22;62540;48.456;-4.456;2022-11-11T09:56:44;17.47;72.57
74178;DHT22;62540;48.456;-4.456;2022-11-11T09:59:23;17.45;72.16
74178;DHT22;62540;48.456;-4.456;2022-11-11T10:01:52;17.44;72.05
74178;DHT22;62540;48.456;-4.456;2022-11-11T10:06:59;17.55;72.14
74178;DHT22;62540;48.456;-4.456;2022-11-11T10:09:33;17.61;70.77
74178;DHT22;62540;48.456;-4.456;2022-11-11T10:12:12;17.67;69.90
74178;DHT22;62540;48.456;-4.456;2022-11-11T10:14:40;17.83;70.07
74178;DHT22;62540;48.456;-4.456;2022-11-11T10:20:25;17.88;69.59
74178;DHT22;62540;48.456;-4.456;2022-11-11T10:23:00;17.90;70.21
74178;DHT22;62540;48.456;-4.456;2022-11-11T10:25:27;17.93;70.07
74178;DHT22;62540;48.456;-4.456;2022-11-11T10:27:58;18.19;69.16
74178;DHT22;62540;48.456;-4.456;2022-11-11T10:30:31;18.29;69.00
74178;DHT22;62540;48.456;-4.456;2022-11-11T10:33:09;18.34;67.58
74178;DHT22;62540;48.456;-4.456;2022-11-11T10:35:38;18.25;67.17
74178;DHT22;62540;48.456;-4.456;2022-11-11T10:38:14;18.26;68.44
74178;DHT22;62540;48.456;-4.456;2022-11-11T10:40:49;18.27;66.89
74178;DHT22;62540;48.456;-4.456;2022-11-11T10:43:23;18.40;66.72
74178;DHT22;62540;48.456;-4.456;2022-11-11T10:45:59;18.47;66.96
74178;DHT22;62540;48.456;-4.456;2022-11-11T10:51:13;18.61;67.01
74178;DHT22;62540;48.456;-4.456;2022-11-11T10:56:39;18.68;66.29
74178;DHT22;62540;48.456;-4.456;2022-11-11T10:59:17;18.61;66.49
74178;DHT22;62540;48.456;-4.456;2022-11-11T11:01:58;18.57;67.05
74178;DHT22;62540;48.456;-4.456;2022-11-11T11:06:54;19.05;64.37
74178;DHT22;62540;48.456;-4.456;2022-11-11T11:09:41;18.98;64.40
74178;DHT22;62540;48.456;-4.456;2022-11-11T11:12:19;18.91;64.31
74178;DHT22;62540;48.456;-4.456;2022-11-11T11:14:49;18.87;64.91
74178;DHT22;62540;48.456;-4.456;2022-11-11T11:17:23;18.99;65.82
74178;DHT22;62540;48.456;-4.456;2022-11-11T11:20:07;19.15;65.74
74178;DHT22;62540;48.456;-4.456;2022-11-11T11:22:52;19.14;63.68
74178;DHT22;62540;48.456;-4.456;2022-11-11T11:25:21;19.05;65.62
74178;DHT22;62540;48.456;-4.456;2022-11-11T11:27:49;19.14;64.77
74178;DHT22;62540;48.456;-4.456;2022-11-11T11:30:17;19.12;63.96
74178;DHT22;62540;48.456;-4.456;2022-11-11T11:32:58;19.06;63.72
74178;DHT22;62540;48.456;-4.456;2022-11-11T11:35:41;19.16;64.31
74178;DHT22;62540;48.456;-4.456;2022-11-11T11:38:08;19.15;64.39
74178;DHT22;62540;48.456;-4.456;2022-11-11T11:41:06;19.23;64.80
74178;DHT22;62540;48.456;-4.456;2022-11-11T11:43:36;19.36;64.61
74178;DHT22;62540;48.456;-4.456;2022-11-11T11:46:26;19.37;63.34
74178;DHT22;62540;48.456;-4.456;2022-11-11T11:51:53;19.27;63.42
74178;DHT22;62540;48.456;-4.456;2022-11-11T11:54:26;19.16;63.60
74178;DHT22;62540;48.456;-4.456;2022-11-11T11:57:01;19.35;63.83
74178;DHT22;62540;48.456;-4.456;2022-11-11T11:59:37;19.39;63.48
74178;DHT22;62540;48.456;-4.456;2022-11-11T12:04:57;19.32;62.22
74178;DHT22;62540;48.456;-4.456;2022-11-11T12:10:38;19.29;61.47
74178;DHT22;62540;48.456;-4.456;2022-11-11T12:21:14;19.83;60.52
74178;DHT22;62540;48.456;-4.456;2022-11-11T12:24:05;19.91;60.25
74178;DHT22;62540;48.456;-4.456;2022-11-11T12:37:25;20.04;58.69
74178;DHT22;62540;48.456;-4.456;2022-11-11T12:43:01;20.18;58.68
74178;DHT22;62540;48.456;-4.456;2022-11-11T12:45:40;20.12;58.64
74178;DHT22;62540;48.456;-4.456;2022-11-11T12:51:16;20.38;59.18
74178;DHT22;62540;48.456;-4.456;2022-11-11T12:56:54;20.63;56.60
74178;DHT22;62540;48.456;-4.456;2022-11-11T13:08:04;20.75;58.16
74178;DHT22;62540;48.456;-4.456;2022-11-11T13:10:36;20.80;57.20
74178;DHT22;62540;48.456;-4.456;2022-11-11T13:15:55;20.76;56.87
74178;DHT22;62540;48.456;-4.456;2022-11-11T13:18:29;20.75;57.04
74178;DHT22;62540;48.456;-4.456;2022-11-11T13:21:03;20.77;57.37
74178;DHT22;62540;48.456;-4.456;2022-11-11T13:23:30;20.65;55.96
74178;DHT22;62540;48.456;-4.456;2022-11-11T13:26:01;20.55;56.91
74178;DHT22;62540;48.456;-4.456;2022-11-11T13:28:36;20.49;57.46
74178;DHT22;62540;48.456;-4.456;2022-11-11T13:31:29;20.53;56.76
74178;DHT22;62540;48.456;-4.456;2022-11-11T13:34:03;20.59;57.27
74178;DHT22;62540;48.456;-4.456;2022-11-11T13:36:38;20.45;56.35
74178;DHT22;62540;48.456;-4.456;2022-11-11T13:39:04;20.39;56.82
74178;DHT22;62540;48.456;-4.456;2022-11-11T13:41:33;20.33;57.13
74178;DHT22;62540;48.456;-4.456;2022-11-11T13:44:03;20.26;56.68
74178;DHT22;62540;48.456;-4.456;2022-11-11T13:46:39;20.17;57.56
74178;DHT22;62540;48.456;-4.456;2022-11-11T13:49:09;20.21;58.29
74178;DHT22;62540;48.456;-4.456;2022-11-11T13:51:45;20.35;58.27
74178;DHT22;62540;48.456;-4.456;2022-11-11T13:54:26;20.29;57.26
74178;DHT22;62540;48.456;-4.456;2022-11-11T13:57:02;20.24;57.36
74178;DHT22;62540;48.456;-4.456;2022-11-11T13:59:37;20.12;58.32
74178;DHT22;62540;48.456;-4.456;2022-11-11T14:15:37;19.63;58.70
74178;DHT22;62540;48.456;-4.456;2022-11-11T14:18:07;19.69;59.84
74178;DHT22;62540;48.456;-4.456;2022-11-11T14:20:36;19.67;60.26
74178;DHT22;62540;48.456;-4.456;2022-11-11T14:25:44;19.54;59.20
74178;DHT22;62540;48.456;-4.456;2022-11-11T14:30:50;19.29;60.00
74178;DHT22;62540;48.456;-4.456;2022-11-11T14:36:39;18.96;60.75
74178;DHT22;62540;48.456;-4.456;2022-11-11T14:39:30;19.04;61.28
74178;DHT22;62540;48.456;-4.456;2022-11-11T14:41:57;19.08;60.92
74178;DHT22;62540;48.456;-4.456;2022-11-11T14:57:37;19.02;61.05
74178;DHT22;62540;48.456;-4.456;2022-11-11T15:00:11;18.96;61.25
74178;DHT22;62540;48.456;-4.456;2022-11-11T15:03:00;19.02;61.45
74178;DHT22;62540;48.456;-4.456;2022-11-11T15:08:24;18.91;61.72
74178;DHT22;62540;48.456;-4.456;2022-11-11T15:16:54;18.67;61.37
74178;DHT22;62540;48.456;-4.456;2022-11-11T15:22:23;18.46;62.51
74178;DHT22;62540;48.456;-4.456;2022-11-11T15:27:56;18.29;61.82
74178;DHT22;62540;48.456;-4.456;2022-11-11T15:30:41;18.17;62.01
74178;DHT22;62540;48.456;-4.456;2022-11-11T15:36:01;18.00;62.86
74178;DHT22;62540;48.456;-4.456;2022-11-11T15:38:29;17.96;63.01
74178;DHT22;62540;48.456;-4.456;2022-11-11T15:40:56;17.92;63.18
74178;DHT22;62540;48.456;-4.456;2022-11-11T15:43:27;17.88;63.47
74178;DHT22;62540;48.456;-4.456;2022-11-11T15:45:55;17.85;63.48
74178;DHT22;62540;48.456;-4.456;2022-11-11T15:48:28;17.79;63.80
74178;DHT22;62540;48.456;-4.456;2022-11-11T15:50:54;17.61;64.09
74178;DHT22;62540;48.456;-4.456;2022-11-11T15:53:25;17.55;64.59
74178;DHT22;62540;48.456;-4.456;2022-11-11T15:55:55;17.55;65.09
74178;DHT22;62540;48.456;-4.456;2022-11-11T15:58:29;17.45;65.58
74178;DHT22;62540;48.456;-4.456;2022-11-11T16:00:57;17.35;66.33
74178;DHT22;62540;48.456;-4.456;2022-11-11T16:03:30;17.28;66.45
74178;DHT22;62540;48.456;-4.456;2022-11-11T16:05:56;17.28;66.29
74178;DHT22;62540;48.456;-4.456;2022-11-11T16:08:22;17.28;66.33
74178;DHT22;62540;48.456;-4.456;2022-11-11T16:10:57;17.23;66.39
74178;DHT22;62540;48.456;-4.456;2022-11-11T16:13:33;17.14;66.34
74178;DHT22;62540;48.456;-4.456;2022-11-11T16:16:10;17.04;66.46
74178;DHT22;62540;48.456;-4.456;2022-11-11T16:18:45;16.89;66.90
74178;DHT22;62540;48.456;-4.456;2022-11-11T16:21:18;16.87;66.79
74178;DHT22;62540;48.456;-4.456;2022-11-11T16:23:46;16.84;66.70
74178;DHT22;62540;48.456;-4.456;2022-11-11T16:26:12;16.77;67.26
74178;DHT22;62540;48.456;-4.456;2022-11-11T16:28:42;16.72;67.31
74178;DHT22;62540;48.456;-4.456;2022-11-11T16:34:21;16.61;67.68
74178;DHT22;62540;48.456;-4.456;2022-11-11T16:37:08;16.48;68.15
74178;DHT22;62540;48.456;-4.456;2022-11-11T16:39:34;16.38;68.62
74178;DHT22;62540;48.456;-4.456;2022-11-11T16:42:02;16.29;68.58
74178;DHT22;62540;48.456;-4.456;2022-11-11T16:44:39;16.24;69.15
74178;DHT22;62540;48.456;-4.456;2022-11-11T16:50:23;16.15;69.20
74178;DHT22;62540;48.456;-4.456;2022-11-11T16:53:00;16.14;69.06
74178;DHT22;62540;48.456;-4.456;2022-11-11T16:55:35;16.14;69.33
74178;DHT22;62540;48.456;-4.456;2022-11-11T16:58:12;16.12;69.50
74178;DHT22;62540;48.456;-4.456;2022-11-11T17:00:40;16.01;69.88
74178;DHT22;62540;48.456;-4.456;2022-11-11T17:03:14;16.00;69.69
74178;DHT22;62540;48.456;-4.456;2022-11-11T17:06:01;15.96;69.84
74178;DHT22;62540;48.456;-4.456;2022-11-11T17:08:43;15.93;69.94
74178;DHT22;62540;48.456;-4.456;2022-11-11T17:11:11;15.83;70.29
74178;DHT22;62540;48.456;-4.456;2022-11-11T17:13:55;15.82;70.32
74178;DHT22;62540;48.456;-4.456;2022-11-11T17:16:20;15.71;70.37
74178;DHT22;62540;48.456;-4.456;2022-11-11T17:18:46;15.70;71.18
74178;DHT22;62540;48.456;-4.456;2022-11-11T17:21:11;15.59;71.68
74178;DHT22;62540;48.456;-4.456;2022-11-11T17:23:37;15.49;71.77
74178;DHT22;62540;48.456;-4.456;2022-11-11T17:26:03;15.39;72.36
74178;DHT22;62540;48.456;-4.456;2022-11-11T17:28:35;15.36;71.76
74178;DHT22;62540;48.456;-4.456;2022-11-11T17:31:05;15.28;72.27
74178;DHT22;62540;48.456;-4.456;2022-11-11T17:33:31;15.25;72.42
74178;DHT22;62540;48.456;-4.456;2022-11-11T17:35:56;15.21;72.16
74178;DHT22;62540;48.456;-4.456;2022-11-11T17:38:22;15.22;72.25
74178;DHT22;62540;48.456;-4.456;2022-11-11T17:40:48;15.16;72.77
74178;DHT22;62540;48.456;-4.456;2022-11-11T17:43:14;15.16;72.66
74178;DHT22;62540;48.456;-4.456;2022-11-11T17:45:40;15.15;72.68
74178;DHT22;62540;48.456;-4.456;2022-11-11T17:48:07;15.12;72.74
74178;DHT22;62540;48.456;-4.456;2022-11-11T17:50:32;15.06;73.07
74178;DHT22;62540;48.456;-4.456;2022-11-11T17:52:59;15.05;72.78